createdAt,value
2023-11-28T00:01:43.990Z,4.90
2023-11-28T00:04:11.994Z,4.90
2023-11-28T00:06:41.282Z,4.90
2023-11-28T00:09:11.715Z,4.90
2023-11-28T00:11:39.682Z,4.90
2023-11-28T00:14:08.195Z,4.90
2023-11-28T00:16:36.293Z,4.90
2023-11-28T00:19:04.541Z,4.90
2023-11-28T00:21:32.494Z,4.90
2023-11-28T00:24:03.161Z,4.90
2023-11-28T00:26:31.111Z,4.90
2023-11-28T00:28:59.052Z,4.90
2023-11-28T00:31:27.048Z,5.00
2023-11-28T00:33:55.095Z,5.00
2023-11-28T00:36:22.939Z,5.00
2023-11-28T00:38:50.806Z,5.00
2023-11-28T00:41:20.365Z,5.00
2023-11-28T00:43:48.803Z,5.00
2023-11-28T00:46:19.500Z,5.00
2023-11-28T00:48:48.180Z,5.00
2023-11-28T00:51:16.940Z,5.00
2023-11-28T00:53:44.833Z,5.00
2023-11-28T00:56:21.146Z,5.00
2023-11-28T00:58:49.487Z,5.00
2023-11-28T01:01:18.771Z,5.10
2023-11-28T01:03:46.865Z,5.10
2023-11-28T01:06:14.994Z,5.10
2023-11-28T01:08:42.893Z,5.10
2023-11-28T01:11:11.491Z,5.10
2023-11-28T01:13:40.923Z,5.10
2023-11-28T01:16:11.689Z,5.10
2023-11-28T01:18:39.720Z,5.10
2023-11-28T01:21:08.344Z,5.10
2023-11-28T01:23:36.221Z,5.10
2023-11-28T01:26:04.481Z,5.10
2023-11-28T01:28:35.408Z,5.10
2023-11-28T01:31:05.952Z,5.20
2023-11-28T01:33:34.347Z,5.20
2023-11-28T01:36:02.264Z,5.20
2023-11-28T01:38:30.168Z,5.10
2023-11-28T01:40:58.371Z,5.10
2023-11-28T01:43:26.462Z,5.20
2023-11-28T01:45:55.341Z,5.20
2023-11-28T01:48:24.833Z,5.20
2023-11-28T01:50:53.998Z,5.20
2023-11-28T01:53:23.655Z,5.20
2023-11-28T01:55:53.903Z,5.20
2023-11-28T01:58:22.058Z,5.20
2023-11-28T02:00:50.650Z,5.20
2023-11-28T02:03:20.249Z,5.20
2023-11-28T02:05:49.014Z,5.20
2023-11-28T02:08:16.886Z,5.20
2023-11-28T02:10:44.816Z,5.20
2023-11-28T02:13:12.741Z,5.30
2023-11-28T02:15:41.732Z,5.30
2023-11-28T02:18:11.383Z,5.20
2023-11-28T02:20:39.701Z,5.30
2023-11-28T02:23:10.116Z,5.30
2023-11-28T02:25:45.073Z,5.30
2023-11-28T02:28:18.559Z,5.30
2023-11-28T02:30:49.808Z,5.30
2023-11-28T02:33:18.240Z,5.30
2023-11-28T02:35:46.336Z,5.30
2023-11-28T02:38:14.650Z,5.30
2023-11-28T02:40:42.623Z,5.30
2023-11-28T02:43:10.645Z,5.30
2023-11-28T02:45:39.954Z,5.30
2023-11-28T02:48:08.044Z,5.30
2023-11-28T02:50:35.889Z,5.30
2023-11-28T02:53:03.756Z,5.30
2023-11-28T02:55:31.715Z,5.30
2023-11-28T02:58:00.065Z,5.30
2023-11-28T03:00:28.468Z,5.30
2023-11-28T03:02:57.836Z,5.30
2023-11-28T03:05:25.780Z,5.40
2023-11-28T03:07:54.045Z,5.30
2023-11-28T03:10:22.184Z,5.30
2023-11-28T03:12:50.080Z,5.40
2023-11-28T03:15:18.221Z,5.40
2023-11-28T03:17:46.199Z,5.40
2023-11-28T03:20:15.933Z,5.40
2023-11-28T03:22:43.875Z,5.40
2023-11-28T03:25:13.697Z,5.40
2023-11-28T03:27:41.685Z,5.40
2023-11-28T03:30:10.725Z,5.40
2023-11-28T03:32:38.769Z,5.40
2023-11-28T03:35:07.436Z,5.40
2023-11-28T03:37:36.867Z,5.40
2023-11-28T03:40:05.022Z,5.40
2023-11-28T03:42:32.985Z,5.40
2023-11-28T03:45:01.006Z,5.40
2023-11-28T03:47:28.890Z,5.40
2023-11-28T03:49:57.452Z,5.40
2023-11-28T03:52:25.362Z,5.40
2023-11-28T03:54:54.622Z,5.40
2023-11-28T03:57:22.535Z,5.40
2023-11-28T03:59:50.585Z,5.50
2023-11-28T04:02:18.653Z,5.40
2023-11-28T04:04:46.891Z,5.40
2023-11-28T04:07:14.956Z,5.50
2023-11-28T04:09:44.241Z,5.50
2023-11-28T04:12:13.497Z,5.50
2023-11-28T04:14:42.382Z,5.50
2023-11-28T04:17:10.551Z,5.50
2023-11-28T04:19:38.488Z,5.50
2023-11-28T04:22:06.650Z,5.50
2023-11-28T04:24:34.648Z,5.50
2023-11-28T04:27:02.516Z,5.50
2023-11-28T04:29:31.946Z,5.50
2023-11-28T04:31:58.945Z,5.50
2023-11-28T04:34:27.038Z,5.50
2023-11-28T04:36:54.957Z,5.50
2023-11-28T04:39:22.996Z,5.50
2023-11-28T04:41:50.832Z,5.50
2023-11-28T04:44:19.521Z,5.50
2023-11-28T04:46:48.830Z,5.50
2023-11-28T04:49:16.786Z,5.50
2023-11-28T04:51:44.676Z,5.50
2023-11-28T04:54:13.462Z,5.50
2023-11-28T04:56:43.948Z,5.50
2023-11-28T04:59:11.945Z,5.50
2023-11-28T05:01:45.124Z,5.50
2023-11-28T05:04:15.687Z,5.50
2023-11-28T05:06:43.879Z,5.50
2023-11-28T05:09:12.376Z,5.50
2023-11-28T05:11:42.604Z,5.40
2023-11-28T05:14:10.669Z,5.40
2023-11-28T05:16:45.782Z,5.40
2023-11-28T05:19:21.848Z,5.30
2023-11-28T05:21:50.079Z,5.30
2023-11-28T05:24:17.961Z,5.20
2023-11-28T05:26:45.995Z,5.20
2023-11-28T05:29:14.162Z,5.20
2023-11-28T05:31:42.194Z,5.10
2023-11-28T05:34:10.148Z,5.00
2023-11-28T05:36:39.512Z,5.00
2023-11-28T05:39:07.599Z,5.00
2023-11-28T05:41:35.526Z,4.90
2023-11-28T05:44:05.204Z,4.90
2023-11-28T05:46:33.434Z,4.90
2023-11-28T05:49:02.034Z,4.90
2023-11-28T05:51:31.368Z,4.80
2023-11-28T05:54:00.607Z,4.90
2023-11-28T05:56:28.586Z,4.80
2023-11-28T05:58:56.612Z,4.80
2023-11-28T06:01:27.539Z,4.80
2023-11-28T06:03:55.630Z,4.80
2023-11-28T06:06:23.750Z,4.80
2023-11-28T06:08:53.554Z,4.70
2023-11-28T06:11:23.429Z,4.70
2023-11-28T06:13:51.411Z,4.70
2023-11-28T06:16:19.887Z,4.60
2023-11-28T06:18:47.911Z,4.60
2023-11-28T06:21:16.215Z,4.60
2023-11-28T06:23:44.230Z,4.50
2023-11-28T06:26:12.447Z,4.50
2023-11-28T06:28:41.832Z,4.40
2023-11-28T06:31:10.208Z,4.40
2023-11-28T06:33:38.169Z,4.40
2023-11-28T06:36:13.129Z,4.30
2023-11-28T06:38:41.517Z,4.30
2023-11-28T06:41:10.091Z,4.30
2023-11-28T06:43:38.425Z,4.20
2023-11-28T06:46:08.163Z,4.20
2023-11-28T06:48:38.982Z,4.20
2023-11-28T06:51:08.484Z,4.10
2023-11-28T06:53:36.403Z,4.10
2023-11-28T06:56:04.886Z,4.10
2023-11-28T06:58:32.797Z,4.10
2023-11-28T07:01:00.748Z,4.10
2023-11-28T07:03:32.811Z,4.00
2023-11-28T07:06:01.509Z,4.00
2023-11-28T07:08:30.749Z,4.00
2023-11-28T07:10:58.680Z,4.00
2023-11-28T07:13:26.668Z,4.00
2023-11-28T07:15:54.662Z,4.00
2023-11-28T07:18:23.422Z,4.00
2023-11-28T07:20:53.124Z,4.00
2023-11-28T07:23:21.230Z,4.00
2023-11-28T07:25:49.811Z,4.00
2023-11-28T07:28:17.964Z,4.00
2023-11-28T07:30:47.092Z,4.00
2023-11-28T07:33:15.292Z,4.00
2023-11-28T07:35:43.346Z,4.00
2023-11-28T07:38:12.878Z,4.00
2023-11-28T07:40:42.045Z,4.00
2023-11-28T07:43:10.295Z,4.00
2023-11-28T07:45:38.214Z,3.90
2023-11-28T07:48:06.674Z,3.90
2023-11-28T07:50:35.166Z,3.90
2023-11-28T07:53:03.268Z,3.90
2023-11-28T07:55:32.956Z,3.90
2023-11-28T07:58:01.091Z,3.90
2023-11-28T08:00:30.598Z,3.90
2023-11-28T08:02:58.987Z,3.90
2023-11-28T08:05:27.159Z,3.80
2023-11-28T08:07:55.169Z,3.80
2023-11-28T08:10:23.651Z,3.80
2023-11-28T08:12:53.238Z,3.80
2023-11-28T08:15:21.241Z,3.80
2023-11-28T08:17:49.139Z,3.80
2023-11-28T08:20:17.939Z,3.80
2023-11-28T08:22:48.919Z,3.80
2023-11-28T08:25:16.843Z,3.80
2023-11-28T08:27:44.739Z,3.80
2023-11-28T08:30:14.808Z,3.80
2023-11-28T08:32:43.084Z,3.80
2023-11-28T08:35:11.180Z,3.80
2023-11-28T08:37:39.151Z,3.80
2023-11-28T08:40:08.373Z,3.80
2023-11-28T08:42:36.308Z,3.80
2023-11-28T08:45:05.255Z,3.80
2023-11-28T08:47:34.607Z,3.70
2023-11-28T08:50:04.920Z,3.70
2023-11-28T08:52:33.119Z,3.70
2023-11-28T08:55:01.832Z,3.70
2023-11-28T08:57:35.359Z,3.70
2023-11-28T09:00:04.113Z,3.70
2023-11-28T09:02:32.250Z,3.70
2023-11-28T09:05:01.733Z,3.70
2023-11-28T09:07:29.713Z,3.70
2023-11-28T09:09:57.757Z,3.70
2023-11-28T09:12:27.012Z,3.70
2023-11-28T09:14:56.649Z,3.80
2023-11-28T09:17:25.207Z,3.70
2023-11-28T09:19:53.296Z,3.70
2023-11-28T09:22:22.599Z,3.70
2023-11-28T09:24:50.611Z,3.70
2023-11-28T09:27:18.494Z,3.70
2023-11-28T09:29:46.399Z,3.70
2023-11-28T09:32:15.019Z,3.70
2023-11-28T09:34:44.416Z,3.70
2023-11-28T09:37:12.434Z,3.70
2023-11-28T09:39:41.696Z,3.60
2023-11-28T09:42:13.242Z,3.60
2023-11-28T09:44:44.212Z,3.60
2023-11-28T09:47:13.378Z,3.60
2023-11-28T09:49:43.368Z,3.60
2023-11-28T09:52:14.763Z,3.60
2023-11-28T09:54:46.659Z,3.60
2023-11-28T09:57:15.977Z,3.60
2023-11-28T09:59:48.734Z,3.60
2023-11-28T10:02:18.823Z,3.60
2023-11-28T10:04:47.027Z,3.60
2023-11-28T10:07:15.912Z,3.60
2023-11-28T10:09:49.318Z,3.50
2023-11-28T10:12:18.329Z,3.60
2023-11-28T10:14:46.679Z,3.60
2023-11-28T10:17:16.985Z,3.50
2023-11-28T10:19:46.531Z,3.50
2023-11-28T10:22:15.404Z,3.50
2023-11-28T10:24:45.279Z,3.50
2023-11-28T10:27:13.833Z,3.50
2023-11-28T10:29:41.773Z,3.50
2023-11-28T10:32:09.821Z,3.50
2023-11-28T10:34:38.714Z,3.50
2023-11-28T10:37:06.694Z,3.40
2023-11-28T10:39:35.958Z,3.40
2023-11-28T10:42:07.478Z,3.40
2023-11-28T10:44:38.058Z,3.30
2023-11-28T10:47:07.209Z,3.30
2023-11-28T10:49:35.265Z,3.30
2023-11-28T10:52:03.614Z,3.30
2023-11-28T10:54:37.998Z,3.30
2023-11-28T10:57:15.415Z,3.20
2023-11-28T10:59:45.733Z,3.30
2023-11-28T11:02:19.075Z,3.30
2023-11-28T11:04:48.820Z,3.20
2023-11-28T11:07:17.170Z,3.20
2023-11-28T11:09:46.113Z,3.20
2023-11-28T11:12:17.146Z,3.20
2023-11-28T11:14:53.890Z,3.20
2023-11-28T11:17:33.676Z,3.20
2023-11-28T11:20:02.495Z,3.20
2023-11-28T11:22:34.137Z,3.30
2023-11-28T11:25:02.413Z,3.20
2023-11-28T11:27:31.702Z,3.30
2023-11-28T11:29:59.696Z,3.30
2023-11-28T11:32:27.869Z,3.30
2023-11-28T11:34:56.318Z,3.30
2023-11-28T11:37:32.617Z,3.30
2023-11-28T11:40:03.348Z,3.30
2023-11-28T11:42:34.665Z,3.30
2023-11-28T11:45:04.257Z,3.30
2023-11-28T11:47:34.466Z,3.30
2023-11-28T11:50:05.149Z,3.30
2023-11-28T11:52:33.962Z,3.30
2023-11-28T11:55:06.214Z,3.30
2023-11-28T11:57:36.080Z,3.30
2023-11-28T12:00:05.606Z,3.30
2023-11-28T12:02:40.803Z,3.30
2023-11-28T12:05:11.226Z,3.30
2023-11-28T12:07:41.225Z,3.30
2023-11-28T12:10:10.902Z,3.30
2023-11-28T12:12:40.936Z,3.30
2023-11-28T12:15:11.189Z,3.30
2023-11-28T12:17:40.831Z,3.30
2023-11-28T12:20:11.290Z,3.30
2023-11-28T12:22:39.617Z,3.30
2023-11-28T12:25:08.553Z,3.30
2023-11-28T12:27:36.514Z,3.30
2023-11-28T12:30:06.516Z,3.40
2023-11-28T12:32:34.577Z,3.40
2023-11-28T12:35:02.598Z,3.40
2023-11-28T12:37:31.925Z,3.40
2023-11-28T12:40:00.836Z,3.40
2023-11-28T12:42:28.790Z,3.40
2023-11-28T12:44:58.818Z,3.40
2023-11-28T12:47:28.955Z,3.50
2023-11-28T12:49:57.622Z,3.40
2023-11-28T12:52:27.689Z,3.40
2023-11-28T12:54:56.833Z,3.40
2023-11-28T12:57:25.869Z,3.30
2023-11-28T12:59:53.779Z,3.30
2023-11-28T13:02:23.205Z,3.40
2023-11-28T13:04:52.548Z,3.40
2023-11-28T13:07:28.628Z,3.30
2023-11-28T13:10:01.867Z,3.40
2023-11-28T13:12:29.934Z,3.40
2023-11-28T13:14:57.904Z,3.40
2023-11-28T13:17:26.339Z,3.30
2023-11-28T13:19:55.848Z,3.40
2023-11-28T13:22:23.778Z,3.40
2023-11-28T13:24:52.436Z,3.40
2023-11-28T13:27:20.385Z,3.40
2023-11-28T13:29:48.389Z,3.40
2023-11-28T13:32:16.762Z,3.40
2023-11-28T13:34:46.500Z,3.40
2023-11-28T13:37:15.906Z,3.40
2023-11-28T13:39:44.574Z,3.40
2023-11-28T13:42:12.733Z,3.40
2023-11-28T13:44:40.902Z,3.40
2023-11-28T13:47:08.935Z,3.30
2023-11-28T13:49:37.997Z,3.30
2023-11-28T13:52:06.910Z,3.30
2023-11-28T13:54:36.805Z,3.30
2023-11-28T13:57:04.888Z,3.30
2023-11-28T13:59:33.135Z,3.30
2023-11-28T14:02:01.463Z,3.30
2023-11-28T14:04:29.843Z,3.30
2023-11-28T14:06:57.816Z,3.30
2023-11-28T14:09:25.725Z,3.30
2023-11-28T14:11:55.003Z,3.30
2023-11-28T14:14:23.095Z,3.20
2023-11-28T14:16:51.714Z,3.20
2023-11-28T14:19:19.774Z,3.20
2023-11-28T14:21:48.260Z,3.20
2023-11-28T14:24:17.943Z,3.20
2023-11-28T14:26:45.915Z,3.20
2023-11-28T14:29:15.239Z,3.10
2023-11-28T14:31:43.314Z,3.20
2023-11-28T14:34:11.283Z,3.10
2023-11-28T14:36:39.246Z,3.20
2023-11-28T14:39:09.492Z,3.20
2023-11-28T14:41:37.980Z,3.10
2023-11-28T14:44:06.124Z,3.10
2023-11-28T14:46:35.461Z,3.10
2023-11-28T14:49:05.175Z,3.10
2023-11-28T14:51:33.307Z,3.10
2023-11-28T14:54:01.541Z,3.10
2023-11-28T14:56:30.179Z,3.10
2023-11-28T14:58:58.440Z,3.10
2023-11-28T15:01:27.039Z,3.00
2023-11-28T15:03:56.525Z,3.00
2023-11-28T15:06:26.335Z,3.00
2023-11-28T15:08:54.716Z,3.00
2023-11-28T15:11:22.720Z,3.00
2023-11-28T15:13:52.165Z,3.00
2023-11-28T15:16:20.765Z,3.00
2023-11-28T15:18:51.811Z,2.90
2023-11-28T15:21:21.336Z,2.90
2023-11-28T15:23:49.250Z,2.90
2023-11-28T15:26:17.343Z,2.90
2023-11-28T15:28:45.686Z,2.90
2023-11-28T15:31:15.050Z,2.90
2023-11-28T15:33:43.654Z,2.90
2023-11-28T15:36:12.652Z,2.80
2023-11-28T15:38:42.305Z,2.80
2023-11-28T15:41:10.362Z,2.80
2023-11-28T15:43:38.328Z,2.80
2023-11-28T15:46:06.442Z,2.80
2023-11-28T15:48:34.311Z,2.80
2023-11-28T15:51:02.149Z,2.80
2023-11-28T15:53:30.101Z,2.80
2023-11-28T15:55:59.420Z,2.80
2023-11-28T15:58:27.321Z,2.80
2023-11-28T16:00:55.178Z,2.80
2023-11-28T16:03:23.819Z,2.80
2023-11-28T16:05:52.184Z,2.80
2023-11-28T16:08:20.066Z,2.80
2023-11-28T16:10:48.002Z,2.70
2023-11-28T16:13:18.088Z,2.80
2023-11-28T16:15:45.998Z,2.70
2023-11-28T16:18:13.962Z,2.70
2023-11-28T16:20:41.972Z,2.70
2023-11-28T16:23:10.419Z,2.70
2023-11-28T16:25:38.355Z,2.70
2023-11-28T16:28:06.341Z,2.70
2023-11-28T16:30:35.613Z,2.70
2023-11-28T16:33:03.614Z,2.70
2023-11-28T16:35:31.618Z,2.70
2023-11-28T16:37:59.523Z,2.70
2023-11-28T16:40:28.113Z,2.70
2023-11-28T16:42:56.305Z,2.70
2023-11-28T16:45:24.406Z,2.70
2023-11-28T16:47:53.846Z,2.70
2023-11-28T16:50:21.895Z,2.70
2023-11-28T16:52:49.877Z,2.70
2023-11-28T16:55:19.985Z,2.70
2023-11-28T16:57:48.365Z,2.70
2023-11-28T17:00:17.557Z,2.70
2023-11-28T17:02:46.036Z,2.70
2023-11-28T17:05:15.650Z,2.70
2023-11-28T17:07:43.599Z,2.70
2023-11-28T17:10:11.728Z,2.70
2023-11-28T17:12:39.672Z,2.60
2023-11-28T17:15:08.841Z,2.60
2023-11-28T17:17:37.306Z,2.60
2023-11-28T17:20:06.969Z,2.70
2023-11-28T17:22:36.241Z,2.70
2023-11-28T17:25:04.853Z,2.60
2023-11-28T17:27:34.648Z,2.60
2023-11-28T17:30:02.577Z,2.60
2023-11-28T17:32:30.539Z,2.60
2023-11-28T17:34:58.471Z,2.60
2023-11-28T17:37:26.368Z,2.50
2023-11-28T17:39:55.628Z,2.50
2023-11-28T17:42:23.723Z,2.50
2023-11-28T17:44:51.749Z,2.50
2023-11-28T17:47:19.808Z,2.60
2023-11-28T17:49:47.741Z,2.60
2023-11-28T17:52:15.720Z,2.60
2023-11-28T17:54:43.598Z,2.50
2023-11-28T17:57:12.781Z,2.50
2023-11-28T17:59:42.991Z,2.50
2023-11-28T18:02:11.528Z,2.60
2023-11-28T18:04:42.241Z,2.60
2023-11-28T18:07:11.261Z,2.60
2023-11-28T18:09:39.199Z,2.60
2023-11-28T18:12:07.928Z,2.60
2023-11-28T18:14:37.908Z,2.60
2023-11-28T18:17:05.981Z,2.60
2023-11-28T18:19:34.020Z,2.60
2023-11-28T18:22:01.991Z,2.60
2023-11-28T18:24:29.978Z,2.60
2023-11-28T18:27:00.660Z,2.60
2023-11-28T18:29:28.619Z,2.60
2023-11-28T18:31:58.301Z,2.60
2023-11-28T18:34:27.122Z,2.60
2023-11-28T18:36:55.227Z,2.60
2023-11-28T18:39:23.303Z,2.60
2023-11-28T18:41:55.086Z,2.60
2023-11-28T18:44:24.403Z,2.60
2023-11-28T18:46:52.877Z,2.50
2023-11-28T18:49:22.180Z,2.60
2023-11-28T18:51:50.178Z,2.60
2023-11-28T18:54:18.130Z,2.60
2023-11-28T18:56:46.437Z,2.50
2023-11-28T18:59:14.524Z,2.50
2023-11-28T19:01:42.483Z,2.60
2023-11-28T19:04:10.815Z,2.50
2023-11-28T19:06:40.190Z,2.60
2023-11-28T19:09:09.310Z,2.60
2023-11-28T19:11:37.398Z,2.60
2023-11-28T19:14:05.825Z,2.60
2023-11-28T19:16:35.810Z,2.50
2023-11-28T19:19:04.124Z,2.50
2023-11-28T19:21:32.362Z,2.50
2023-11-28T19:24:01.733Z,2.50
2023-11-28T19:26:30.169Z,2.60
2023-11-28T19:28:58.796Z,2.60
2023-11-28T19:31:26.824Z,2.60
2023-11-28T19:33:55.097Z,2.60
2023-11-28T19:36:23.033Z,2.50
2023-11-28T19:38:52.432Z,2.60
2023-11-28T19:41:22.027Z,2.50
2023-11-28T19:43:49.946Z,2.60
2023-11-28T19:46:19.592Z,2.60
2023-11-28T19:48:47.717Z,2.60
2023-11-28T19:51:15.917Z,2.60
2023-11-28T19:53:44.946Z,2.60
2023-11-28T19:56:13.132Z,2.60
2023-11-28T19:58:42.481Z,2.60
2023-11-28T20:01:10.437Z,2.60
2023-11-28T20:03:39.561Z,2.60
2023-11-28T20:06:08.632Z,2.60
2023-11-28T20:08:37.083Z,2.60
2023-11-28T20:11:05.352Z,2.60
2023-11-28T20:13:33.420Z,2.60
2023-11-28T20:16:03.552Z,2.60
2023-11-28T20:18:32.362Z,2.60
2023-11-28T20:21:00.523Z,2.60
2023-11-28T20:23:28.597Z,2.60
2023-11-28T20:25:56.730Z,2.60
2023-11-28T20:28:24.786Z,2.70
2023-11-28T20:30:52.862Z,2.70
2023-11-28T20:33:22.253Z,2.70
2023-11-28T20:35:52.863Z,2.70
2023-11-28T20:38:21.258Z,2.60
2023-11-28T20:40:49.801Z,2.60
2023-11-28T20:43:18.104Z,2.60
2023-11-28T20:45:46.026Z,2.60
2023-11-28T20:48:14.104Z,2.60
2023-11-28T20:50:43.428Z,2.60
2023-11-28T20:53:13.272Z,2.60
2023-11-28T20:55:41.340Z,2.60
2023-11-28T20:58:10.978Z,2.60
2023-11-28T21:00:38.984Z,2.60
2023-11-28T21:03:06.929Z,2.60
2023-11-28T21:05:35.105Z,2.60
2023-11-28T21:08:04.804Z,2.60
2023-11-28T21:10:32.955Z,2.60
2023-11-28T21:13:00.840Z,2.60
2023-11-28T21:15:28.825Z,2.60
2023-11-28T21:17:59.582Z,2.60
2023-11-28T21:20:27.611Z,2.60
2023-11-28T21:22:55.515Z,2.60
2023-11-28T21:25:24.797Z,2.60
2023-11-28T21:27:52.804Z,2.60
2023-11-28T21:30:21.669Z,2.60
2023-11-28T21:32:50.512Z,2.60
2023-11-28T21:35:19.132Z,2.60
2023-11-28T21:37:47.694Z,2.60
2023-11-28T21:40:15.664Z,2.60
2023-11-28T21:42:44.967Z,2.60
2023-11-28T21:45:12.957Z,2.60
2023-11-28T21:47:41.384Z,2.60
2023-11-28T21:50:13.601Z,2.60
2023-11-28T21:52:44.591Z,2.60
2023-11-28T21:55:12.864Z,2.60
2023-11-28T21:57:40.892Z,2.60
2023-11-28T22:00:11.524Z,2.60
2023-11-28T22:02:39.454Z,2.60
2023-11-28T22:05:08.017Z,2.60
2023-11-28T22:07:36.018Z,2.60
2023-11-28T22:10:04.538Z,2.60
2023-11-28T22:12:32.475Z,2.60
2023-11-28T22:15:00.609Z,2.60
2023-11-28T22:17:29.956Z,2.60
2023-11-28T22:19:58.125Z,2.50
2023-11-28T22:22:26.437Z,2.60
2023-11-28T22:24:54.923Z,2.60
2023-11-28T22:27:22.838Z,2.60
2023-11-28T22:29:50.817Z,2.60
2023-11-28T22:32:18.873Z,2.50
2023-11-28T22:34:48.097Z,2.50
2023-11-28T22:37:16.054Z,2.60
2023-11-28T22:39:44.024Z,2.60
2023-11-28T22:42:12.035Z,2.50
2023-11-28T22:44:41.312Z,2.50
2023-11-28T22:47:09.634Z,2.60
2023-11-28T22:49:37.654Z,2.60
2023-11-28T22:52:07.369Z,2.60
2023-11-28T22:54:35.341Z,2.50
2023-11-28T22:57:03.410Z,2.50
2023-11-28T22:59:31.335Z,2.60
2023-11-28T23:01:59.602Z,2.60
2023-11-28T23:04:27.513Z,2.60
2023-11-28T23:06:55.396Z,2.50
2023-11-28T23:09:24.602Z,2.50
2023-11-28T23:11:52.508Z,2.50
2023-11-28T23:14:20.454Z,2.60
2023-11-28T23:16:48.939Z,2.60
2023-11-28T23:19:18.012Z,2.60
2023-11-28T23:21:47.247Z,2.60
2023-11-28T23:24:15.215Z,2.50
2023-11-28T23:26:49.838Z,2.50
2023-11-28T23:29:18.315Z,2.50
2023-11-28T23:31:46.528Z,2.50
2023-11-28T23:34:15.657Z,2.50
2023-11-28T23:36:44.101Z,2.50
2023-11-28T23:39:12.135Z,2.50
2023-11-28T23:41:40.066Z,2.50
2023-11-28T23:44:09.617Z,2.40
2023-11-28T23:46:37.547Z,2.50
2023-11-28T23:49:05.650Z,2.50
2023-11-28T23:51:34.251Z,2.40
2023-11-28T23:54:02.201Z,2.40
2023-11-28T23:56:30.296Z,2.40
2023-11-28T23:58:58.342Z,2.40
